sensor_id;sensor_type;location;lat;lon;timestamp;temperature;humidity
18191;DHT22;47004;51.366;12.348;2022-07-29T00:01:53;18.70;57.20
18191;DHT22;47004;51.366;12.348;2022-07-29T00:03:54;18.70;58.00
18191;DHT22;47004;51.366;12.348;2022-07-29T00:05:56;18.70;57.50
18191;DHT22;47004;51.366;12.348;2022-07-29T00:07:58;18.70;57.90
18191;DHT22;47004;51.366;12.348;2022-07-29T00:10:00;18.70;58.70
18191;DHT22;47004;51.366;12.348;2022-07-29T00:12:03;18.60;58.10
18191;DHT22;47004;51.366;12.348;2022-07-29T00:14:06;18.60;58.30
18191;DHT22;47004;51.366;12.348;2022-07-29T00:16:08;18.60;58.00
18191;DHT22;47004;51.366;12.348;2022-07-29T00:18:10;18.60;58.00
18191;DHT22;47004;51.366;12.348;2022-07-29T00:20:12;18.60;57.90
18191;DHT22;47004;51.366;12.348;2022-07-29T00:22:14;18.60;58.30
18191;DHT22;47004;51.366;12.348;2022-07-29T00:24:16;18.60;58.40
18191;DHT22;47004;51.366;12.348;2022-07-29T00:26:18;18.60;58.50
18191;DHT22;47004;51.366;12.348;2022-07-29T00:28:20;18.60;58.70
18191;DHT22;47004;51.366;12.348;2022-07-29T00:30:23;18.60;58.90
18191;DHT22;47004;51.366;12.348;2022-07-29T00:32:25;18.60;58.90
18191;DHT22;47004;51.366;12.348;2022-07-29T00:34:27;18.60;59.50
18191;DHT22;47004;51.366;12.348;2022-07-29T00:36:46;18.60;59.30
18191;DHT22;47004;51.366;12.348;2022-07-29T00:38:48;18.50;59.70
18191;DHT22;47004;51.366;12.348;2022-07-29T00:40:50;18.50;59.90
18191;DHT22;47004;51.366;12.348;2022-07-29T00:42:53;18.50;59.30
18191;DHT22;47004;51.366;12.348;2022-07-29T00:44:55;18.50;59.90
18191;DHT22;47004;51.366;12.348;2022-07-29T00:46:58;18.50;60.30
18191;DHT22;47004;51.366;12.348;2022-07-29T00:49:00;18.50;59.70
18191;DHT22;47004;51.366;12.348;2022-07-29T00:51:03;18.50;60.30
18191;DHT22;47004;51.366;12.348;2022-07-29T00:53:06;18.50;60.40
18191;DHT22;47004;51.366;12.348;2022-07-29T00:55:10;18.40;60.00
18191;DHT22;47004;51.366;12.348;2022-07-29T00:57:13;18.40;61.50
18191;DHT22;47004;51.366;12.348;2022-07-29T00:59:15;18.40;61.50
18191;DHT22;47004;51.366;12.348;2022-07-29T01:01:17;18.40;60.60
18191;DHT22;47004;51.366;12.348;2022-07-29T01:03:20;18.40;60.60
18191;DHT22;47004;51.366;12.348;2022-07-29T01:05:24;18.40;61.20
18191;DHT22;47004;51.366;12.348;2022-07-29T01:07:27;18.40;61.70
18191;DHT22;47004;51.366;12.348;2022-07-29T01:09:31;18.40;62.50
18191;DHT22;47004;51.366;12.348;2022-07-29T01:11:34;18.40;62.30
18191;DHT22;47004;51.366;12.348;2022-07-29T01:13:36;18.40;61.70
18191;DHT22;47004;51.366;12.348;2022-07-29T01:15:43;18.30;61.80
18191;DHT22;47004;51.366;12.348;2022-07-29T01:17:49;18.30;62.80
18191;DHT22;47004;51.366;12.348;2022-07-29T01:20:00;18.30;63.00
18191;DHT22;47004;51.366;12.348;2022-07-29T01:22:13;18.30;62.70
18191;DHT22;47004;51.366;12.348;2022-07-29T01:24:36;18.30;63.30
18191;DHT22;47004;51.366;12.348;2022-07-29T01:26:44;18.30;62.70
18191;DHT22;47004;51.366;12.348;2022-07-29T01:28:57;18.20;64.30
18191;DHT22;47004;51.366;12.348;2022-07-29T01:31:02;18.20;64.40
18191;DHT22;47004;51.366;12.348;2022-07-29T01:33:14;18.20;64.60
18191;DHT22;47004;51.366;12.348;2022-07-29T01:35:39;18.20;64.60
18191;DHT22;47004;51.366;12.348;2022-07-29T01:37:45;18.20;64.80
18191;DHT22;47004;51.366;12.348;2022-07-29T01:39:50;18.20;64.40
18191;DHT22;47004;51.366;12.348;2022-07-29T01:42:02;18.20;64.70
18191;DHT22;47004;51.366;12.348;2022-07-29T01:44:13;18.20;65.10
18191;DHT22;47004;51.366;12.348;2022-07-29T01:46:21;18.10;65.60
18191;DHT22;47004;51.366;12.348;2022-07-29T01:48:31;18.10;66.20
18191;DHT22;47004;51.366;12.348;2022-07-29T01:50:40;18.20;65.80
18191;DHT22;47004;51.366;12.348;2022-07-29T01:52:47;18.10;66.40
18191;DHT22;47004;51.366;12.348;2022-07-29T01:54:55;18.10;66.20
18191;DHT22;47004;51.366;12.348;2022-07-29T01:56:59;18.10;67.20
18191;DHT22;47004;51.366;12.348;2022-07-29T01:59:03;18.10;67.50
18191;DHT22;47004;51.366;12.348;2022-07-29T02:01:08;18.10;67.20
18191;DHT22;47004;51.366;12.348;2022-07-29T02:03:12;18.10;67.20
18191;DHT22;47004;51.366;12.348;2022-07-29T02:05:17;18.00;67.60
18191;DHT22;47004;51.366;12.348;2022-07-29T02:07:21;18.00;68.90
18191;DHT22;47004;51.366;12.348;2022-07-29T02:09:24;18.00;68.70
18191;DHT22;47004;51.366;12.348;2022-07-29T02:11:27;18.00;69.50
18191;DHT22;47004;51.366;12.348;2022-07-29T02:13:31;18.00;69.20
18191;DHT22;47004;51.366;12.348;2022-07-29T02:15:34;18.00;69.20
18191;DHT22;47004;51.366;12.348;2022-07-29T02:17:41;18.00;69.70
18191;DHT22;47004;51.366;12.348;2022-07-29T02:19:45;18.00;69.00
18191;DHT22;47004;51.366;12.348;2022-07-29T02:21:48;18.00;70.00
18191;DHT22;47004;51.366;12.348;2022-07-29T02:23:53;18.00;70.20
18191;DHT22;47004;51.366;12.348;2022-07-29T02:25:56;18.00;70.40
18191;DHT22;47004;51.366;12.348;2022-07-29T02:28:00;18.00;71.00
18191;DHT22;47004;51.366;12.348;2022-07-29T02:30:03;18.00;70.00
18191;DHT22;47004;51.366;12.348;2022-07-29T02:32:07;17.90;70.40
18191;DHT22;47004;51.366;12.348;2022-07-29T02:34:12;17.90;70.10
18191;DHT22;47004;51.366;12.348;2022-07-29T02:36:15;17.90;71.20
18191;DHT22;47004;51.366;12.348;2022-07-29T02:38:19;17.90;70.10
18191;DHT22;47004;51.366;12.348;2022-07-29T02:40:39;17.90;70.70
18191;DHT22;47004;51.366;12.348;2022-07-29T02:42:44;17.90;70.80
18191;DHT22;47004;51.366;12.348;2022-07-29T02:44:46;17.90;71.70
18191;DHT22;47004;51.366;12.348;2022-07-29T02:46:52;17.90;71.80
18191;DHT22;47004;51.366;12.348;2022-07-29T02:48:58;17.90;71.20
18191;DHT22;47004;51.366;12.348;2022-07-29T02:51:07;17.90;71.20
18191;DHT22;47004;51.366;12.348;2022-07-29T02:53:14;17.90;71.20
18191;DHT22;47004;51.366;12.348;2022-07-29T02:55:22;17.90;72.10
18191;DHT22;47004;51.366;12.348;2022-07-29T02:57:33;17.90;71.70
18191;DHT22;47004;51.366;12.348;2022-07-29T02:59:38;17.80;72.90
18191;DHT22;47004;51.366;12.348;2022-07-29T03:01:43;17.80;73.80
18191;DHT22;47004;51.366;12.348;2022-07-29T03:03:46;17.80;72.70
18191;DHT22;47004;51.366;12.348;2022-07-29T03:05:52;17.80;72.40
18191;DHT22;47004;51.366;12.348;2022-07-29T03:07:58;17.80;72.40
18191;DHT22;47004;51.366;12.348;2022-07-29T03:10:00;17.70;72.40
18191;DHT22;47004;51.366;12.348;2022-07-29T03:12:04;17.80;72.60
18191;DHT22;47004;51.366;12.348;2022-07-29T03:14:07;17.80;73.90
18191;DHT22;47004;51.366;12.348;2022-07-29T03:16:09;17.80;72.90
18191;DHT22;47004;51.366;12.348;2022-07-29T03:18:12;17.80;73.30
18191;DHT22;47004;51.366;12.348;2022-07-29T03:20:14;17.70;73.60
18191;DHT22;47004;51.366;12.348;2022-07-29T03:22:17;17.70;72.80
18191;DHT22;47004;51.366;12.348;2022-07-29T03:24:28;17.70;73.30
18191;DHT22;47004;51.366;12.348;2022-07-29T03:26:30;17.70;74.60
18191;DHT22;47004;51.366;12.348;2022-07-29T03:28:32;17.70;76.00
18191;DHT22;47004;51.366;12.348;2022-07-29T03:30:34;17.70;75.90
18191;DHT22;47004;51.366;12.348;2022-07-29T03:32:36;17.70;76.20
18191;DHT22;47004;51.366;12.348;2022-07-29T03:34:38;17.60;76.50
18191;DHT22;47004;51.366;12.348;2022-07-29T03:36:40;17.60;76.60
18191;DHT22;47004;51.366;12.348;2022-07-29T03:38:43;17.60;77.70
18191;DHT22;47004;51.366;12.348;2022-07-29T03:40:51;17.60;77.90
18191;DHT22;47004;51.366;12.348;2022-07-29T03:42:55;17.60;78.40
18191;DHT22;47004;51.366;12.348;2022-07-29T03:44:59;17.60;79.30
18191;DHT22;47004;51.366;12.348;2022-07-29T03:47:04;17.60;79.70
18191;DHT22;47004;51.366;12.348;2022-07-29T03:49:08;17.60;79.60
18191;DHT22;47004;51.366;12.348;2022-07-29T03:51:10;17.60;79.40
18191;DHT22;47004;51.366;12.348;2022-07-29T03:53:12;17.60;79.30
18191;DHT22;47004;51.366;12.348;2022-07-29T03:55:15;17.50;79.30
18191;DHT22;47004;51.366;12.348;2022-07-29T03:57:21;17.60;79.30
18191;DHT22;47004;51.366;12.348;2022-07-29T03:59:26;17.50;79.40
18191;DHT22;47004;51.366;12.348;2022-07-29T04:01:29;17.50;79.90
18191;DHT22;47004;51.366;12.348;2022-07-29T04:03:34;17.60;79.20
18191;DHT22;47004;51.366;12.348;2022-07-29T04:05:36;17.60;79.40
18191;DHT22;47004;51.366;12.348;2022-07-29T04:07:38;17.60;79.00
18191;DHT22;47004;51.366;12.348;2022-07-29T04:09:41;17.60;79.20
18191;DHT22;47004;51.366;12.348;2022-07-29T04:11:44;17.50;78.80
18191;DHT22;47004;51.366;12.348;2022-07-29T04:13:48;17.60;78.80
18191;DHT22;47004;51.366;12.348;2022-07-29T04:15:49;17.60;78.80
18191;DHT22;47004;51.366;12.348;2022-07-29T04:17:51;17.60;78.20
18191;DHT22;47004;51.366;12.348;2022-07-29T04:19:53;17.60;78.00
18191;DHT22;47004;51.366;12.348;2022-07-29T04:21:55;17.60;77.00
18191;DHT22;47004;51.366;12.348;2022-07-29T04:23:59;17.60;77.10
18191;DHT22;47004;51.366;12.348;2022-07-29T04:26:01;17.60;76.60
18191;DHT22;47004;51.366;12.348;2022-07-29T04:28:03;17.60;76.60
18191;DHT22;47004;51.366;12.348;2022-07-29T04:30:07;17.60;76.50
18191;DHT22;47004;51.366;12.348;2022-07-29T04:32:12;17.70;76.10
18191;DHT22;47004;51.366;12.348;2022-07-29T04:34:14;17.60;75.80
18191;DHT22;47004;51.366;12.348;2022-07-29T04:36:16;17.70;75.90
18191;DHT22;47004;51.366;12.348;2022-07-29T04:38:18;17.70;76.30
18191;DHT22;47004;51.366;12.348;2022-07-29T04:40:20;17.70;76.00
18191;DHT22;47004;51.366;12.348;2022-07-29T04:42:22;17.70;75.30
18191;DHT22;47004;51.366;12.348;2022-07-29T04:44:24;17.70;76.00
18191;DHT22;47004;51.366;12.348;2022-07-29T04:46:28;17.70;75.10
18191;DHT22;47004;51.366;12.348;2022-07-29T04:48:30;17.70;75.10
18191;DHT22;47004;51.366;12.348;2022-07-29T04:50:32;17.70;75.30
18191;DHT22;47004;51.366;12.348;2022-07-29T04:52:34;17.70;74.80
18191;DHT22;47004;51.366;12.348;2022-07-29T04:54:36;17.80;75.60
18191;DHT22;47004;51.366;12.348;2022-07-29T04:56:38;17.70;75.10
18191;DHT22;47004;51.366;12.348;2022-07-29T04:58:40;17.70;75.00
18191;DHT22;47004;51.366;12.348;2022-07-29T05:00:42;17.70;75.00
18191;DHT22;47004;51.366;12.348;2022-07-29T05:02:45;17.70;74.60
18191;DHT22;47004;51.366;12.348;2022-07-29T05:04:47;17.80;74.30
18191;DHT22;47004;51.366;12.348;2022-07-29T05:06:49;17.80;73.90
18191;DHT22;47004;51.366;12.348;2022-07-29T05:08:51;17.80;73.90
18191;DHT22;47004;51.366;12.348;2022-07-29T05:10:53;17.80;73.80
18191;DHT22;47004;51.366;12.348;2022-07-29T05:12:55;17.80;73.60
18191;DHT22;47004;51.366;12.348;2022-07-29T05:14:57;17.90;73.60
18191;DHT22;47004;51.366;12.348;2022-07-29T05:16:59;17.90;73.60
18191;DHT22;47004;51.366;12.348;2022-07-29T05:19:02;17.90;73.50
18191;DHT22;47004;51.366;12.348;2022-07-29T05:21:04;17.90;73.60
18191;DHT22;47004;51.366;12.348;2022-07-29T05:23:06;18.00;73.80
18191;DHT22;47004;51.366;12.348;2022-07-29T05:25:08;17.90;73.40
18191;DHT22;47004;51.366;12.348;2022-07-29T05:27:10;17.90;73.10
18191;DHT22;47004;51.366;12.348;2022-07-29T05:29:12;18.00;73.30
18191;DHT22;47004;51.366;12.348;2022-07-29T05:31:14;18.00;73.30
18191;DHT22;47004;51.366;12.348;2022-07-29T05:33:16;18.00;72.70
18191;DHT22;47004;51.366;12.348;2022-07-29T05:35:19;18.10;72.50
18191;DHT22;47004;51.366;12.348;2022-07-29T05:37:21;18.10;72.30
18191;DHT22;47004;51.366;12.348;2022-07-29T05:39:26;18.10;72.40
18191;DHT22;47004;51.366;12.348;2022-07-29T05:41:31;18.20;71.80
18191;DHT22;47004;51.366;12.348;2022-07-29T05:43:33;18.20;71.30
18191;DHT22;47004;51.366;12.348;2022-07-29T05:45:35;18.20;71.50
18191;DHT22;47004;51.366;12.348;2022-07-29T05:47:37;18.30;71.40
18191;DHT22;47004;51.366;12.348;2022-07-29T05:49:39;18.30;70.70
18191;DHT22;47004;51.366;12.348;2022-07-29T05:51:42;18.30;70.50
18191;DHT22;47004;51.366;12.348;2022-07-29T05:53:44;18.40;70.10
18191;DHT22;47004;51.366;12.348;2022-07-29T05:55:46;18.40;69.80
18191;DHT22;47004;51.366;12.348;2022-07-29T05:57:48;18.40;69.30
18191;DHT22;47004;51.366;12.348;2022-07-29T05:59:50;18.50;69.20
18191;DHT22;47004;51.366;12.348;2022-07-29T06:01:52;18.50;68.80
18191;DHT22;47004;51.366;12.348;2022-07-29T06:03:54;18.60;68.60
18191;DHT22;47004;51.366;12.348;2022-07-29T06:05:56;18.60;68.30
18191;DHT22;47004;51.366;12.348;2022-07-29T06:08:00;18.60;67.80
18191;DHT22;47004;51.366;12.348;2022-07-29T06:10:02;18.70;67.60
18191;DHT22;47004;51.366;12.348;2022-07-29T06:12:04;18.70;67.10
18191;DHT22;47004;51.366;12.348;2022-07-29T06:14:06;18.80;66.90
18191;DHT22;47004;51.366;12.348;2022-07-29T06:16:08;18.80;66.40
18191;DHT22;47004;51.366;12.348;2022-07-29T06:18:11;18.80;66.00
18191;DHT22;47004;51.366;12.348;2022-07-29T06:20:13;18.80;65.60
18191;DHT22;47004;51.366;12.348;2022-07-29T06:22:15;18.80;65.10
18191;DHT22;47004;51.366;12.348;2022-07-29T06:24:19;18.90;65.00
18191;DHT22;47004;51.366;12.348;2022-07-29T06:26:21;18.90;64.60
18191;DHT22;47004;51.366;12.348;2022-07-29T06:28:23;19.00;64.60
18191;DHT22;47004;51.366;12.348;2022-07-29T06:30:25;19.00;64.10
18191;DHT22;47004;51.366;12.348;2022-07-29T06:32:27;19.00;64.10
18191;DHT22;47004;51.366;12.348;2022-07-29T06:34:29;19.00;63.80
18191;DHT22;47004;51.366;12.348;2022-07-29T06:36:34;19.10;64.30
18191;DHT22;47004;51.366;12.348;2022-07-29T06:38:37;19.10;63.10
18191;DHT22;47004;51.366;12.348;2022-07-29T06:40:42;19.20;62.60
18191;DHT22;47004;51.366;12.348;2022-07-29T06:43:02;19.20;62.00
18191;DHT22;47004;51.366;12.348;2022-07-29T06:45:05;19.30;61.70
18191;DHT22;47004;51.366;12.348;2022-07-29T06:47:07;19.30;61.00
18191;DHT22;47004;51.366;12.348;2022-07-29T06:49:09;19.40;60.80
18191;DHT22;47004;51.366;12.348;2022-07-29T06:51:11;19.40;60.30
18191;DHT22;47004;51.366;12.348;2022-07-29T06:53:13;19.50;60.20
18191;DHT22;47004;51.366;12.348;2022-07-29T06:55:15;19.50;59.90
18191;DHT22;47004;51.366;12.348;2022-07-29T06:57:21;19.60;60.50
18191;DHT22;47004;51.366;12.348;2022-07-29T06:59:23;19.60;59.60
18191;DHT22;47004;51.366;12.348;2022-07-29T07:01:25;19.70;59.60
18191;DHT22;47004;51.366;12.348;2022-07-29T07:03:26;19.60;59.30
18191;DHT22;47004;51.366;12.348;2022-07-29T07:05:29;19.70;59.20
18191;DHT22;47004;51.366;12.348;2022-07-29T07:07:31;19.80;59.40
18191;DHT22;47004;51.366;12.348;2022-07-29T07:09:33;19.80;59.10
18191;DHT22;47004;51.366;12.348;2022-07-29T07:11:35;19.80;59.00
18191;DHT22;47004;51.366;12.348;2022-07-29T07:13:38;19.90;58.50
18191;DHT22;47004;51.366;12.348;2022-07-29T07:15:40;20.00;58.90
18191;DHT22;47004;51.366;12.348;2022-07-29T07:17:42;20.00;58.50
18191;DHT22;47004;51.366;12.348;2022-07-29T07:19:44;20.10;57.80
18191;DHT22;47004;51.366;12.348;2022-07-29T07:21:46;20.10;57.50
18191;DHT22;47004;51.366;12.348;2022-07-29T07:23:48;20.10;57.50
18191;DHT22;47004;51.366;12.348;2022-07-29T07:25:51;20.10;58.50
18191;DHT22;47004;51.366;12.348;2022-07-29T07:27:53;20.10;58.70
18191;DHT22;47004;51.366;12.348;2022-07-29T07:29:56;20.10;59.10
18191;DHT22;47004;51.366;12.348;2022-07-29T07:31:58;20.10;59.20
18191;DHT22;47004;51.366;12.348;2022-07-29T07:34:00;20.10;58.80
18191;DHT22;47004;51.366;12.348;2022-07-29T07:36:02;20.20;58.40
18191;DHT22;47004;51.366;12.348;2022-07-29T07:38:04;20.20;58.60
18191;DHT22;47004;51.366;12.348;2022-07-29T07:40:09;20.20;59.00
18191;DHT22;47004;51.366;12.348;2022-07-29T07:42:12;20.30;58.20
18191;DHT22;47004;51.366;12.348;2022-07-29T07:44:14;20.30;58.00
18191;DHT22;47004;51.366;12.348;2022-07-29T07:46:17;20.30;58.20
18191;DHT22;47004;51.366;12.348;2022-07-29T07:48:19;20.30;58.30
18191;DHT22;47004;51.366;12.348;2022-07-29T07:50:21;20.40;57.60
18191;DHT22;47004;51.366;12.348;2022-07-29T07:52:23;20.40;57.40
18191;DHT22;47004;51.366;12.348;2022-07-29T07:54:25;20.40;59.80
18191;DHT22;47004;51.366;12.348;2022-07-29T07:56:27;20.40;58.30
18191;DHT22;47004;51.366;12.348;2022-07-29T07:58:29;20.50;57.80
18191;DHT22;47004;51.366;12.348;2022-07-29T08:00:31;20.50;58.00
18191;DHT22;47004;51.366;12.348;2022-07-29T08:02:35;20.50;58.10
18191;DHT22;47004;51.366;12.348;2022-07-29T08:04:37;20.60;58.20
18191;DHT22;47004;51.366;12.348;2022-07-29T08:06:41;20.60;59.50
18191;DHT22;47004;51.366;12.348;2022-07-29T08:08:42;20.60;59.20
18191;DHT22;47004;51.366;12.348;2022-07-29T08:10:44;20.70;59.90
18191;DHT22;47004;51.366;12.348;2022-07-29T08:12:56;20.70;59.10
18191;DHT22;47004;51.366;12.348;2022-07-29T08:14:58;20.70;59.40
18191;DHT22;47004;51.366;12.348;2022-07-29T08:17:00;20.80;58.90
18191;DHT22;47004;51.366;12.348;2022-07-29T08:19:03;20.80;58.80
18191;DHT22;47004;51.366;12.348;2022-07-29T08:21:06;20.90;58.10
18191;DHT22;47004;51.366;12.348;2022-07-29T08:23:08;20.90;57.80
18191;DHT22;47004;51.366;12.348;2022-07-29T08:25:12;21.00;57.60
18191;DHT22;47004;51.366;12.348;2022-07-29T08:27:14;21.00;58.90
18191;DHT22;47004;51.366;12.348;2022-07-29T08:29:16;21.10;58.30
18191;DHT22;47004;51.366;12.348;2022-07-29T08:31:18;21.20;58.10
18191;DHT22;47004;51.366;12.348;2022-07-29T08:33:20;21.30;58.30
18191;DHT22;47004;51.366;12.348;2022-07-29T08:35:24;21.40;57.30
18191;DHT22;47004;51.366;12.348;2022-07-29T08:37:26;21.50;56.20
18191;DHT22;47004;51.366;12.348;2022-07-29T08:39:28;21.60;55.80
18191;DHT22;47004;51.366;12.348;2022-07-29T08:41:30;21.70;55.00
18191;DHT22;47004;51.366;12.348;2022-07-29T08:43:32;21.80;54.50
18191;DHT22;47004;51.366;12.348;2022-07-29T08:45:42;21.90;53.90
18191;DHT22;47004;51.366;12.348;2022-07-29T08:47:45;22.00;54.90
18191;DHT22;47004;51.366;12.348;2022-07-29T08:49:47;22.10;54.30
18191;DHT22;47004;51.366;12.348;2022-07-29T08:51:50;22.10;53.60
18191;DHT22;47004;51.366;12.348;2022-07-29T08:53:55;22.20;53.40
18191;DHT22;47004;51.366;12.348;2022-07-29T08:55:57;22.30;53.40
18191;DHT22;47004;51.366;12.348;2022-07-29T08:58:00;22.40;53.20
18191;DHT22;47004;51.366;12.348;2022-07-29T09:00:04;22.50;51.70
18191;DHT22;47004;51.366;12.348;2022-07-29T09:02:11;22.60;51.70
18191;DHT22;47004;51.366;12.348;2022-07-29T09:04:15;22.60;51.50
18191;DHT22;47004;51.366;12.348;2022-07-29T09:06:18;22.70;51.00
18191;DHT22;47004;51.366;12.348;2022-07-29T09:08:26;22.80;50.60
18191;DHT22;47004;51.366;12.348;2022-07-29T09:10:38;22.90;50.40
18191;DHT22;47004;51.366;12.348;2022-07-29T09:12:42;23.10;50.20
18191;DHT22;47004;51.366;12.348;2022-07-29T09:14:44;23.10;50.10
18191;DHT22;47004;51.366;12.348;2022-07-29T09:16:54;23.20;50.10
18191;DHT22;47004;51.366;12.348;2022-07-29T09:18:56;23.30;49.00
18191;DHT22;47004;51.366;12.348;2022-07-29T09:20:58;23.40;48.70
18191;DHT22;47004;51.366;12.348;2022-07-29T09:23:18;23.50;48.40
18191;DHT22;47004;51.366;12.348;2022-07-29T09:25:36;23.60;48.40
18191;DHT22;47004;51.366;12.348;2022-07-29T09:27:38;23.70;48.00
18191;DHT22;47004;51.366;12.348;2022-07-29T09:29:40;23.80;48.00
18191;DHT22;47004;51.366;12.348;2022-07-29T09:31:45;23.90;47.80
18191;DHT22;47004;51.366;12.348;2022-07-29T09:33:47;24.00;47.40
18191;DHT22;47004;51.366;12.348;2022-07-29T09:35:59;24.00;47.30
18191;DHT22;47004;51.366;12.348;2022-07-29T09:38:10;24.10;47.40
18191;DHT22;47004;51.366;12.348;2022-07-29T09:40:14;24.10;47.10
18191;DHT22;47004;51.366;12.348;2022-07-29T09:42:28;24.20;46.40
18191;DHT22;47004;51.366;12.348;2022-07-29T09:44:44;24.30;46.00
18191;DHT22;47004;51.366;12.348;2022-07-29T09:46:57;24.40;46.10
18191;DHT22;47004;51.366;12.348;2022-07-29T09:49:06;24.40;45.70
18191;DHT22;47004;51.366;12.348;2022-07-29T09:51:17;24.50;45.60
18191;DHT22;47004;51.366;12.348;2022-07-29T09:53:31;24.60;45.00
18191;DHT22;47004;51.366;12.348;2022-07-29T09:55:46;24.60;45.00
18191;DHT22;47004;51.366;12.348;2022-07-29T09:57:50;24.80;44.20
18191;DHT22;47004;51.366;12.348;2022-07-29T09:59:59;24.80;43.50
18191;DHT22;47004;51.366;12.348;2022-07-29T10:02:01;24.90;44.00
18191;DHT22;47004;51.366;12.348;2022-07-29T10:04:12;25.00;43.60
18191;DHT22;47004;51.366;12.348;2022-07-29T10:06:14;25.10;43.30
18191;DHT22;47004;51.366;12.348;2022-07-29T10:08:25;25.20;42.80
18191;DHT22;47004;51.366;12.348;2022-07-29T10:10:28;25.40;43.40
18191;DHT22;47004;51.366;12.348;2022-07-29T10:12:30;25.40;42.90
18191;DHT22;47004;51.366;12.348;2022-07-29T10:14:34;25.50;42.90
18191;DHT22;47004;51.366;12.348;2022-07-29T10:16:36;25.60;41.90
18191;DHT22;47004;51.366;12.348;2022-07-29T10:18:39;25.70;41.40
18191;DHT22;47004;51.366;12.348;2022-07-29T10:20:41;25.80;41.10
18191;DHT22;47004;51.366;12.348;2022-07-29T10:22:44;25.90;40.80
18191;DHT22;47004;51.366;12.348;2022-07-29T10:24:47;26.00;40.60
18191;DHT22;47004;51.366;12.348;2022-07-29T10:26:50;26.10;40.30
18191;DHT22;47004;51.366;12.348;2022-07-29T10:28:52;26.10;40.20
18191;DHT22;47004;51.366;12.348;2022-07-29T10:31:02;26.20;40.00
18191;DHT22;47004;51.366;12.348;2022-07-29T10:33:15;26.30;40.00
18191;DHT22;47004;51.366;12.348;2022-07-29T10:37:55;26.50;39.70
18191;DHT22;47004;51.366;12.348;2022-07-29T10:40:09;26.60;39.20
18191;DHT22;47004;51.366;12.348;2022-07-29T10:42:28;26.80;38.00
18191;DHT22;47004;51.366;12.348;2022-07-29T10:44:31;26.90;37.40
18191;DHT22;47004;51.366;12.348;2022-07-29T10:46:39;27.00;37.20
18191;DHT22;47004;51.366;12.348;2022-07-29T10:49:04;27.10;37.30
18191;DHT22;47004;51.366;12.348;2022-07-29T10:51:06;27.20;36.90
18191;DHT22;47004;51.366;12.348;2022-07-29T10:53:09;27.30;36.60
18191;DHT22;47004;51.366;12.348;2022-07-29T10:55:30;27.40;36.70
18191;DHT22;47004;51.366;12.348;2022-07-29T10:57:33;27.50;36.50
18191;DHT22;47004;51.366;12.348;2022-07-29T10:59:38;27.60;36.50
18191;DHT22;47004;51.366;12.348;2022-07-29T11:01:41;27.70;36.30
18191;DHT22;47004;51.366;12.348;2022-07-29T11:03:45;27.90;35.60
18191;DHT22;47004;51.366;12.348;2022-07-29T11:05:55;28.00;35.20
18191;DHT22;47004;51.366;12.348;2022-07-29T11:08:24;28.10;35.20
18191;DHT22;47004;51.366;12.348;2022-07-29T11:10:26;28.30;33.70
18191;DHT22;47004;51.366;12.348;2022-07-29T11:12:47;28.40;33.80
18191;DHT22;47004;51.366;12.348;2022-07-29T11:14:55;28.60;33.50
18191;DHT22;47004;51.366;12.348;2022-07-29T11:17:04;28.70;33.10
18191;DHT22;47004;51.366;12.348;2022-07-29T11:19:21;28.80;32.60
18191;DHT22;47004;51.366;12.348;2022-07-29T11:21:35;29.00;31.70
18191;DHT22;47004;51.366;12.348;2022-07-29T11:23:40;29.20;31.10
18191;DHT22;47004;51.366;12.348;2022-07-29T11:25:44;29.30;30.30
18191;DHT22;47004;51.366;12.348;2022-07-29T11:27:46;29.40;30.60
18191;DHT22;47004;51.366;12.348;2022-07-29T11:29:53;29.50;30.60
18191;DHT22;47004;51.366;12.348;2022-07-29T11:32:10;29.70;30.50
18191;DHT22;47004;51.366;12.348;2022-07-29T11:34:20;29.80;30.40
18191;DHT22;47004;51.366;12.348;2022-07-29T11:36:22;30.00;30.10
18191;DHT22;47004;51.366;12.348;2022-07-29T11:38:26;30.20;29.90
18191;DHT22;47004;51.366;12.348;2022-07-29T11:40:28;30.30;29.90
18191;DHT22;47004;51.366;12.348;2022-07-29T11:42:44;30.50;29.80
18191;DHT22;47004;51.366;12.348;2022-07-29T11:44:56;30.70;29.60
18191;DHT22;47004;51.366;12.348;2022-07-29T11:46:58;30.90;29.40
18191;DHT22;47004;51.366;12.348;2022-07-29T11:49:02;31.10;29.00
18191;DHT22;47004;51.366;12.348;2022-07-29T11:51:09;31.30;28.80
18191;DHT22;47004;51.366;12.348;2022-07-29T11:53:12;31.50;28.10
18191;DHT22;47004;51.366;12.348;2022-07-29T11:55:17;31.70;27.90
18191;DHT22;47004;51.366;12.348;2022-07-29T11:57:20;31.90;27.60
18191;DHT22;47004;51.366;12.348;2022-07-29T11:59:24;32.20;27.60
18191;DHT22;47004;51.366;12.348;2022-07-29T12:01:27;32.40;27.50
18191;DHT22;47004;51.366;12.348;2022-07-29T12:03:30;32.70;27.40
18191;DHT22;47004;51.366;12.348;2022-07-29T12:05:36;32.90;27.00
18191;DHT22;47004;51.366;12.348;2022-07-29T12:07:39;33.20;26.60
18191;DHT22;47004;51.366;12.348;2022-07-29T12:09:49;33.40;26.10
18191;DHT22;47004;51.366;12.348;2022-07-29T12:11:57;33.60;26.10
18191;DHT22;47004;51.366;12.348;2022-07-29T12:13:59;33.80;26.00
18191;DHT22;47004;51.366;12.348;2022-07-29T12:16:01;34.10;26.00
18191;DHT22;47004;51.366;12.348;2022-07-29T12:18:13;34.30;26.00
18191;DHT22;47004;51.366;12.348;2022-07-29T12:20:23;34.60;25.90
18191;DHT22;47004;51.366;12.348;2022-07-29T12:22:27;34.90;25.60
18191;DHT22;47004;51.366;12.348;2022-07-29T12:24:43;35.20;25.50
18191;DHT22;47004;51.366;12.348;2022-07-29T12:26:52;35.50;25.40
18191;DHT22;47004;51.366;12.348;2022-07-29T12:28:54;35.80;25.00
18191;DHT22;47004;51.366;12.348;2022-07-29T12:30:56;36.20;24.80
18191;DHT22;47004;51.366;12.348;2022-07-29T12:32:59;36.40;24.40
18191;DHT22;47004;51.366;12.348;2022-07-29T12:35:04;36.70;24.40
18191;DHT22;47004;51.366;12.348;2022-07-29T12:37:09;37.00;24.30
18191;DHT22;47004;51.366;12.348;2022-07-29T12:39:12;37.30;24.30
18191;DHT22;47004;51.366;12.348;2022-07-29T12:41:14;37.50;23.90
18191;DHT22;47004;51.366;12.348;2022-07-29T12:43:18;37.70;23.80
18191;DHT22;47004;51.366;12.348;2022-07-29T12:45:28;37.90;23.70
18191;DHT22;47004;51.366;12.348;2022-07-29T12:47:30;37.90;23.30
18191;DHT22;47004;51.366;12.348;2022-07-29T12:49:32;38.00;23.30
18191;DHT22;47004;51.366;12.348;2022-07-29T12:51:35;38.20;23.50
18191;DHT22;47004;51.366;12.348;2022-07-29T12:53:38;38.40;23.30
18191;DHT22;47004;51.366;12.348;2022-07-29T12:55:46;38.60;23.10
18191;DHT22;47004;51.366;12.348;2022-07-29T12:57:50;38.60;23.10